createdAt,value
2017-11-28T00:01:18.055Z,0.70
2017-11-28T00:03:45.577Z,0.62
2017-11-28T00:06:13.097Z,0.90
2017-11-28T00:08:40.773Z,0.70
2017-11-28T00:11:08.286Z,0.60
2017-11-28T00:13:35.804Z,0.70
2017-11-28T00:16:03.761Z,0.90
2017-11-28T00:18:31.362Z,0.40
2017-11-28T00:20:58.973Z,0.50
2017-11-28T00:23:26.882Z,0.50
2017-11-28T00:25:55.304Z,0.50
2017-11-28T00:28:22.816Z,0.45
2017-11-28T00:30:50.381Z,0.40
2017-11-28T00:33:17.894Z,0.50
2017-11-28T00:35:45.421Z,0.82
2017-11-28T00:38:13.111Z,0.60
2017-11-28T00:40:40.637Z,0.50
2017-11-28T00:43:08.143Z,0.60
2017-11-28T00:45:35.710Z,0.40
2017-11-28T00:48:03.239Z,0.60
2017-11-28T00:50:30.819Z,0.55
2017-11-28T00:52:58.883Z,0.60
2017-11-28T00:55:26.461Z,0.43
2017-11-28T00:57:54.116Z,0.50
2017-11-28T01:00:21.956Z,0.82
2017-11-28T01:02:49.469Z,0.60
2017-11-28T01:05:16.995Z,0.70
2017-11-28T01:07:44.650Z,0.50
2017-11-28T01:10:12.235Z,0.50
2017-11-28T01:12:40.632Z,0.80
2017-11-28T01:15:08.439Z,0.40
2017-11-28T01:17:35.953Z,0.60
2017-11-28T01:20:03.505Z,0.70
2017-11-28T01:22:31.129Z,0.98
2017-11-28T01:24:58.701Z,0.70
2017-11-28T01:27:26.241Z,0.52
2017-11-28T01:29:54.000Z,0.70
2017-11-28T01:32:21.532Z,0.80
2017-11-28T01:34:49.076Z,0.70
2017-11-28T01:37:16.797Z,1.12
2017-11-28T01:39:44.308Z,0.50
2017-11-28T01:42:11.887Z,0.70
2017-11-28T01:44:39.670Z,1.23
2017-11-28T01:47:07.225Z,0.77
2017-11-28T01:49:34.749Z,0.77
2017-11-28T01:52:02.544Z,0.70
2017-11-28T01:54:30.062Z,1.08
2017-11-28T01:56:57.619Z,0.68
2017-11-28T01:59:25.547Z,0.95
2017-11-28T02:01:53.061Z,1.10
2017-11-28T02:04:20.576Z,1.05
2017-11-28T02:06:48.207Z,1.23
2017-11-28T02:09:15.724Z,1.10
2017-11-28T02:11:43.234Z,1.05
2017-11-28T02:14:10.902Z,1.17
2017-11-28T02:16:38.421Z,0.77
2017-11-28T02:19:06.001Z,0.93
2017-11-28T02:21:33.968Z,1.20
2017-11-28T02:24:01.751Z,1.20
2017-11-28T02:26:29.294Z,1.30
2017-11-28T02:28:57.176Z,1.05
2017-11-28T02:31:24.697Z,1.65
2017-11-28T02:33:52.214Z,1.42
2017-11-28T02:36:20.263Z,1.90
2017-11-28T02:38:47.834Z,1.30
2017-11-28T02:41:21.811Z,1.30
2017-11-28T02:44:05.162Z,1.52
2017-11-28T02:46:32.926Z,1.77
2017-11-28T02:49:26.189Z,0.93
2017-11-28T02:52:01.729Z,1.58
2017-11-28T02:54:29.291Z,1.33
2017-11-28T02:56:56.856Z,0.90
2017-11-28T02:59:27.481Z,2.78
2017-11-28T03:01:55.805Z,1.20
2017-11-28T03:04:23.334Z,1.12
2017-11-28T03:06:51.173Z,1.17
2017-11-28T03:09:27.665Z,1.85
2017-11-28T03:11:55.261Z,1.08
2017-11-28T03:14:26.353Z,1.65
2017-11-28T03:16:53.864Z,1.67
2017-11-28T03:19:25.996Z,1.35
2017-11-28T03:21:56.376Z,1.48
2017-11-28T03:24:30.284Z,1.25
2017-11-28T03:26:57.870Z,1.98
2017-11-28T03:29:37.309Z,1.30
2017-11-28T03:32:04.871Z,1.90
2017-11-28T03:34:32.384Z,1.20
2017-11-28T03:37:00.373Z,0.70
2017-11-28T03:39:28.057Z,1.12
2017-11-28T03:41:55.831Z,0.95
2017-11-28T03:44:35.238Z,1.30
2017-11-28T03:47:02.920Z,0.98
2017-11-28T03:49:30.582Z,1.50
2017-11-28T03:51:59.181Z,1.58
2017-11-28T03:54:26.708Z,1.20
2017-11-28T03:56:54.273Z,1.42
2017-11-28T03:59:22.152Z,1.55
2017-11-28T04:01:49.765Z,1.08
2017-11-28T04:04:17.478Z,1.48
2017-11-28T04:06:45.646Z,1.65
2017-11-28T04:09:13.238Z,1.23
2017-11-28T04:11:40.789Z,1.20
2017-11-28T04:14:08.630Z,1.77
2017-11-28T04:16:36.216Z,2.22
2017-11-28T04:19:03.798Z,1.70
2017-11-28T04:21:31.597Z,1.12
2017-11-28T04:23:59.252Z,1.15
2017-11-28T04:26:26.835Z,1.42
2017-11-28T04:28:54.505Z,1.60
2017-11-28T04:31:22.247Z,1.05
2017-11-28T04:33:49.809Z,1.20
2017-11-28T04:36:17.433Z,1.50
2017-11-28T04:38:45.045Z,1.37
2017-11-28T04:41:12.570Z,1.60
2017-11-28T04:43:40.292Z,1.40
2017-11-28T04:46:07.854Z,1.30
2017-11-28T04:48:35.464Z,1.40
2017-11-28T04:51:03.164Z,1.45
2017-11-28T04:53:30.756Z,2.22
2017-11-28T04:55:58.280Z,1.20
2017-11-28T04:58:26.130Z,1.20
2017-11-28T05:00:53.784Z,1.37
2017-11-28T05:03:21.428Z,1.67
2017-11-28T05:05:49.215Z,1.27
2017-11-28T05:08:16.724Z,1.60
2017-11-28T05:10:44.419Z,1.70
2017-11-28T05:13:12.284Z,1.35
2017-11-28T05:15:39.846Z,1.35
2017-11-28T05:18:07.369Z,1.30
2017-11-28T05:20:35.490Z,1.05
2017-11-28T05:23:03.050Z,1.73
2017-11-28T05:25:30.712Z,1.90
2017-11-28T05:27:58.763Z,0.93
2017-11-28T05:30:26.298Z,1.60
2017-11-28T05:32:54.003Z,1.08
2017-11-28T05:35:21.752Z,0.80
2017-11-28T05:37:49.407Z,1.75
2017-11-28T05:40:16.926Z,1.70
2017-11-28T05:42:44.564Z,1.45
2017-11-28T05:45:12.132Z,1.75
2017-11-28T05:47:39.739Z,1.40
2017-11-28T05:50:07.581Z,1.40
2017-11-28T05:52:35.136Z,1.50
2017-11-28T05:55:02.721Z,1.50
2017-11-28T05:57:30.698Z,1.45
2017-11-28T05:59:58.260Z,1.87
2017-11-28T06:02:25.828Z,1.10
2017-11-28T06:04:53.602Z,1.35
2017-11-28T06:07:21.262Z,1.10
2017-11-28T06:09:49.036Z,1.23
2017-11-28T06:12:16.625Z,0.80
2017-11-28T06:14:44.145Z,1.45
2017-11-28T06:17:11.791Z,1.40
2017-11-28T06:19:39.386Z,1.02
2017-11-28T06:22:07.028Z,1.27
2017-11-28T06:24:34.548Z,1.00
2017-11-28T06:27:02.150Z,1.77
2017-11-28T06:29:29.713Z,1.15
2017-11-28T06:31:57.370Z,1.37
2017-11-28T06:34:25.240Z,1.73
2017-11-28T06:36:52.897Z,1.37
2017-11-28T06:39:32.209Z,2.00
2017-11-28T06:41:59.865Z,1.17
2017-11-28T06:44:27.382Z,1.65
2017-11-28T06:46:54.948Z,1.50
2017-11-28T06:49:22.481Z,1.05
2017-11-28T06:51:49.989Z,1.30
2017-11-28T06:54:18.153Z,1.60
2017-11-28T06:56:52.369Z,1.77
2017-11-28T06:59:19.951Z,0.85
2017-11-28T07:01:47.466Z,1.30
2017-11-28T07:04:14.981Z,1.02
2017-11-28T07:06:42.548Z,0.90
2017-11-28T07:09:10.110Z,1.15
2017-11-28T07:11:37.674Z,1.10
2017-11-28T07:14:05.520Z,1.10
2017-11-28T07:16:33.039Z,1.02
2017-11-28T07:19:00.567Z,1.00
2017-11-28T07:21:28.501Z,1.10
2017-11-28T07:23:56.019Z,0.73
2017-11-28T07:26:23.552Z,1.00
2017-11-28T07:28:51.103Z,0.93
2017-11-28T07:31:18.652Z,0.80
2017-11-28T07:33:46.228Z,1.02
2017-11-28T07:36:13.876Z,1.05
2017-11-28T07:38:41.512Z,0.93
2017-11-28T07:41:09.033Z,0.80
2017-11-28T07:43:36.836Z,0.70
2017-11-28T07:46:04.404Z,0.95
2017-11-28T07:48:31.915Z,0.73
2017-11-28T07:50:59.740Z,0.70
2017-11-28T07:53:27.256Z,1.00
2017-11-28T07:55:54.797Z,0.88
2017-11-28T07:58:22.647Z,0.80
2017-11-28T08:00:50.173Z,0.95
2017-11-28T08:03:17.738Z,0.70
2017-11-28T08:05:45.416Z,0.70
2017-11-28T08:08:12.938Z,0.70
2017-11-28T08:10:40.528Z,1.00
2017-11-28T08:13:08.254Z,0.73
2017-11-28T08:15:35.864Z,0.98
2017-11-28T08:18:03.501Z,0.70
2017-11-28T08:20:31.263Z,0.57
2017-11-28T08:22:58.790Z,0.77
2017-11-28T08:25:26.331Z,0.65
2017-11-28T08:27:54.048Z,0.43
2017-11-28T08:30:21.616Z,0.50
2017-11-28T08:32:49.143Z,0.65
2017-11-28T08:35:16.991Z,0.60
2017-11-28T08:37:44.550Z,0.40
2017-11-28T08:40:12.329Z,0.50
2017-11-28T08:42:40.219Z,0.45
2017-11-28T08:45:07.791Z,0.85
2017-11-28T08:47:35.330Z,0.50
2017-11-28T08:50:03.103Z,0.40
2017-11-28T08:52:30.740Z,0.30
2017-11-28T08:54:58.269Z,0.40
2017-11-28T08:57:25.959Z,0.50
2017-11-28T08:59:53.482Z,0.52
2017-11-28T09:02:21.003Z,0.50
2017-11-28T09:04:48.555Z,0.55
2017-11-28T09:07:16.111Z,0.50
2017-11-28T09:09:43.675Z,0.50
2017-11-28T09:12:11.336Z,0.57
2017-11-28T09:14:38.894Z,0.50
2017-11-28T09:17:06.408Z,0.55
2017-11-28T09:19:34.200Z,0.73
2017-11-28T09:22:01.760Z,0.40
2017-11-28T09:24:29.745Z,0.68
2017-11-28T09:26:57.430Z,0.70
2017-11-28T09:29:24.945Z,0.60
2017-11-28T09:31:52.504Z,0.30
2017-11-28T09:34:20.290Z,0.35
2017-11-28T09:36:48.003Z,0.40
2017-11-28T09:39:15.547Z,0.40
2017-11-28T09:41:43.099Z,0.60
2017-11-28T09:44:10.618Z,0.45
2017-11-28T09:46:38.229Z,0.55
2017-11-28T09:49:06.243Z,0.45
2017-11-28T09:51:33.773Z,0.40
2017-11-28T09:54:01.301Z,0.40
2017-11-28T09:56:29.120Z,0.73
2017-11-28T09:58:56.649Z,0.60
2017-11-28T10:01:24.181Z,0.40
2017-11-28T10:03:52.103Z,0.60
2017-11-28T10:06:19.608Z,0.50
2017-11-28T10:08:47.120Z,0.40
2017-11-28T10:11:14.692Z,0.40
2017-11-28T10:13:42.207Z,0.40
2017-11-28T10:16:09.778Z,0.75
2017-11-28T10:18:37.478Z,0.50
2017-11-28T10:21:04.989Z,0.40
2017-11-28T10:23:33.433Z,0.40
2017-11-28T10:26:01.105Z,0.60
2017-11-28T10:28:28.641Z,0.40
2017-11-28T10:30:56.166Z,0.40
2017-11-28T10:33:23.836Z,0.40
2017-11-28T10:35:51.360Z,0.60
2017-11-28T10:38:18.882Z,0.50
2017-11-28T10:40:46.445Z,0.60
2017-11-28T10:43:13.990Z,0.70
2017-11-28T10:45:41.549Z,0.50
2017-11-28T10:48:09.316Z,0.55
2017-11-28T10:50:36.828Z,0.50
2017-11-28T10:53:04.357Z,0.40
2017-11-28T10:55:31.922Z,0.40
2017-11-28T10:57:59.458Z,0.40
2017-11-28T11:00:27.012Z,0.73
2017-11-28T11:02:54.763Z,0.50
2017-11-28T11:05:22.841Z,0.45
2017-11-28T11:07:50.384Z,0.50
2017-11-28T11:10:18.062Z,0.50
2017-11-28T11:12:45.622Z,0.50
2017-11-28T11:15:13.184Z,0.70
2017-11-28T11:17:40.760Z,0.50
2017-11-28T11:20:08.310Z,1.05
2017-11-28T11:22:35.817Z,0.62
2017-11-28T11:25:03.564Z,0.52
2017-11-28T11:27:31.076Z,0.60
2017-11-28T11:29:58.640Z,0.50
2017-11-28T11:32:26.241Z,0.50
2017-11-28T11:34:53.769Z,0.75
2017-11-28T11:37:21.320Z,0.40
2017-11-28T11:39:48.884Z,0.50
2017-11-28T11:42:16.406Z,0.73
2017-11-28T11:44:43.928Z,0.57
2017-11-28T11:47:11.489Z,0.50
2017-11-28T11:49:39.009Z,0.60
2017-11-28T11:52:06.583Z,0.50
2017-11-28T11:54:34.152Z,1.15
2017-11-28T11:57:01.685Z,0.90
2017-11-28T11:59:29.191Z,0.40
2017-11-28T12:01:56.889Z,0.43
2017-11-28T12:04:24.465Z,0.65
2017-11-28T12:06:51.980Z,0.60
2017-11-28T12:09:19.768Z,0.70
2017-11-28T12:11:47.281Z,0.70
2017-11-28T12:14:14.806Z,0.40
2017-11-28T12:16:42.543Z,0.77
2017-11-28T12:19:10.056Z,0.52
2017-11-28T12:21:37.631Z,0.50
2017-11-28T12:24:05.432Z,0.60
2017-11-28T12:26:33.024Z,0.68
2017-11-28T12:29:00.578Z,0.50
2017-11-28T12:31:28.333Z,0.50
2017-11-28T12:33:56.003Z,1.20
2017-11-28T12:36:23.537Z,0.47
2017-11-28T12:38:51.417Z,0.77
2017-11-28T12:41:19.109Z,0.40
2017-11-28T12:43:46.662Z,0.55
2017-11-28T12:46:14.731Z,0.70
2017-11-28T12:48:42.399Z,0.40
2017-11-28T12:51:10.035Z,0.62
2017-11-28T12:53:37.797Z,0.60
2017-11-28T12:56:05.457Z,0.50
2017-11-28T12:58:33.015Z,0.77
2017-11-28T13:01:00.880Z,0.70
2017-11-28T13:03:28.396Z,0.60
2017-11-28T13:05:55.962Z,0.57
2017-11-28T13:08:23.559Z,0.70
2017-11-28T13:10:51.075Z,0.40
2017-11-28T13:13:18.601Z,0.75
2017-11-28T13:15:46.337Z,0.68
2017-11-28T13:18:13.846Z,0.50
2017-11-28T13:20:41.361Z,0.40
2017-11-28T13:23:08.932Z,0.65
2017-11-28T13:25:36.574Z,0.73
2017-11-28T13:28:04.137Z,1.27
2017-11-28T13:30:31.921Z,0.50
2017-11-28T13:32:59.462Z,0.90
2017-11-28T13:35:27.016Z,0.68
2017-11-28T13:37:54.860Z,0.80
2017-11-28T13:40:22.376Z,0.60
2017-11-28T13:42:49.912Z,0.52
2017-11-28T13:45:17.597Z,0.75
2017-11-28T13:47:45.120Z,0.73
2017-11-28T13:50:12.680Z,0.60
2017-11-28T13:52:40.428Z,0.70
2017-11-28T13:55:08.000Z,0.70
2017-11-28T13:57:35.563Z,0.60
2017-11-28T14:00:03.121Z,0.70
2017-11-28T14:02:30.677Z,0.60
2017-11-28T14:04:58.237Z,0.60
2017-11-28T14:07:26.083Z,0.50
2017-11-28T14:09:53.609Z,0.55
2017-11-28T14:12:21.124Z,0.50
2017-11-28T14:14:48.677Z,0.50
2017-11-28T14:17:16.324Z,0.62
2017-11-28T14:19:53.797Z,0.60
2017-11-28T14:22:21.312Z,0.60
2017-11-28T14:24:52.350Z,0.70
2017-11-28T14:27:22.489Z,0.80
2017-11-28T14:32:58.031Z,0.60
2017-11-28T14:35:31.148Z,0.45
2017-11-28T14:37:59.163Z,0.50
2017-11-28T14:40:27.951Z,0.60
2017-11-28T14:46:06.975Z,0.80
2017-11-28T14:48:34.615Z,1.20
2017-11-28T14:51:07.685Z,1.00
2017-11-28T14:53:41.152Z,0.62
2017-11-28T14:56:11.071Z,0.40
2017-11-28T14:58:44.375Z,0.73
2017-11-28T15:01:17.603Z,0.50
2017-11-28T15:06:52.506Z,0.80
2017-11-28T15:12:34.424Z,0.50
2017-11-28T15:15:07.816Z,0.70
2017-11-28T15:17:41.423Z,0.60
2017-11-28T15:23:22.056Z,0.57
2017-11-28T15:25:50.569Z,0.57
2017-11-28T15:28:22.035Z,0.60
2017-11-28T15:30:52.057Z,0.55
2017-11-28T15:33:19.813Z,0.70
2017-11-28T15:35:47.783Z,0.60
2017-11-28T15:38:16.058Z,0.80
2017-11-28T15:40:43.926Z,0.80
2017-11-28T15:43:11.812Z,1.12
2017-11-28T15:45:40.007Z,0.75
2017-11-28T15:48:07.607Z,0.50
2017-11-28T15:50:36.211Z,0.75
2017-11-28T15:53:04.178Z,0.70
2017-11-28T15:55:32.046Z,0.70
2017-11-28T15:57:59.816Z,0.65
2017-11-28T16:00:28.290Z,0.62
2017-11-28T16:02:55.974Z,0.68
2017-11-28T16:05:24.755Z,0.50
2017-11-28T16:07:53.173Z,0.50
2017-11-28T16:10:21.005Z,0.77
2017-11-28T16:12:48.891Z,0.57
2017-11-28T16:15:17.231Z,2.65
2017-11-28T16:17:45.199Z,1.08
2017-11-28T16:20:12.962Z,0.90
2017-11-28T16:22:41.154Z,0.52
2017-11-28T16:25:09.103Z,1.17
2017-11-28T16:27:37.177Z,2.72
2017-11-28T16:30:05.593Z,1.23
2017-11-28T16:32:33.316Z,1.77
2017-11-28T16:35:01.694Z,2.35
2017-11-28T16:37:29.909Z,1.70
2017-11-28T16:39:57.871Z,1.45
2017-11-28T16:42:25.702Z,1.92
2017-11-28T16:44:53.980Z,1.10
2017-11-28T16:47:21.700Z,0.90
2017-11-28T16:49:49.510Z,1.08
2017-11-28T16:52:18.117Z,0.73
2017-11-28T16:54:46.060Z,1.02
2017-11-28T16:57:13.822Z,0.80
2017-11-28T16:59:41.783Z,1.27
2017-11-28T17:02:09.684Z,1.17
2017-11-28T17:04:37.536Z,1.15
2017-11-28T17:07:05.706Z,1.10
2017-11-28T17:09:34.525Z,1.50
2017-11-28T17:12:02.484Z,1.15
2017-11-28T17:14:30.526Z,1.50
2017-11-28T17:16:58.440Z,1.40
2017-11-28T17:19:26.462Z,1.45
2017-11-28T17:21:54.645Z,1.30
2017-11-28T17:24:22.538Z,1.92
2017-11-28T17:26:51.291Z,1.50
2017-11-28T17:29:20.387Z,1.98
2017-11-28T17:31:48.355Z,1.60
2017-11-28T17:34:16.359Z,2.15
2017-11-28T17:36:44.518Z,2.15
2017-11-28T17:39:12.472Z,1.85
2017-11-28T17:41:40.566Z,2.15
2017-11-28T17:44:09.136Z,2.20
2017-11-28T17:46:38.003Z,1.60
2017-11-28T17:49:05.945Z,1.85
2017-11-28T17:51:34.460Z,2.03
2017-11-28T17:54:02.982Z,1.83
2017-11-28T17:56:31.064Z,1.92
2017-11-28T17:58:59.492Z,2.97
2017-11-28T18:01:27.693Z,2.03
2017-11-28T18:03:55.635Z,2.97
2017-11-28T18:06:23.626Z,2.40
2017-11-28T18:08:51.779Z,2.05
2017-11-28T18:11:20.155Z,3.00
2017-11-28T18:13:48.177Z,2.58
2017-11-28T18:16:17.566Z,3.35
2017-11-28T18:18:45.597Z,2.37
2017-11-28T18:21:14.182Z,2.45
2017-11-28T18:23:42.567Z,2.45
2017-11-28T18:26:10.534Z,2.30
2017-11-28T18:28:39.321Z,2.70
2017-11-28T18:31:07.961Z,2.55
2017-11-28T18:33:35.774Z,2.15
2017-11-28T18:36:03.818Z,3.37
2017-11-28T18:38:37.374Z,2.70
2017-11-28T18:41:05.515Z,2.55
2017-11-28T18:43:33.479Z,3.33
2017-11-28T18:46:01.255Z,2.50
2017-11-28T18:48:29.619Z,1.95
2017-11-28T18:50:57.510Z,3.10
2017-11-28T18:53:25.456Z,3.53
2017-11-28T18:55:53.526Z,2.75
2017-11-28T18:58:21.494Z,3.15
2017-11-28T19:00:49.788Z,2.92
2017-11-28T19:03:17.960Z,3.45
2017-11-28T19:05:47.448Z,2.25
2017-11-28T19:08:16.722Z,3.30
2017-11-28T19:10:45.273Z,2.58
2017-11-28T19:13:13.215Z,3.55
2017-11-28T19:15:41.269Z,3.65
2017-11-28T19:18:09.878Z,3.42
2017-11-28T19:20:37.721Z,3.83
2017-11-28T19:23:06.711Z,2.95
2017-11-28T19:25:34.908Z,3.17
2017-11-28T19:28:02.551Z,3.78
2017-11-28T19:30:30.516Z,4.30
2017-11-28T19:32:58.688Z,3.75
2017-11-28T19:35:26.630Z,3.83
2017-11-28T19:37:54.523Z,4.43
2017-11-28T19:40:23.053Z,3.55
2017-11-28T19:42:50.880Z,3.70
2017-11-28T19:45:18.796Z,4.50
2017-11-28T19:47:47.034Z,5.05
2017-11-28T19:50:15.089Z,3.75
2017-11-28T19:52:42.965Z,4.65
2017-11-28T19:55:12.871Z,4.65
2017-11-28T19:57:40.863Z,5.30
2017-11-28T20:00:09.318Z,5.07
2017-11-28T20:02:37.787Z,5.10
2017-11-28T20:05:05.573Z,4.35
2017-11-28T20:07:33.880Z,3.83
2017-11-28T20:10:02.718Z,5.15
2017-11-28T20:12:30.693Z,4.95
2017-11-28T20:14:59.139Z,5.65
2017-11-28T20:17:27.350Z,4.97
2017-11-28T20:19:55.942Z,5.32
2017-11-28T20:22:23.742Z,5.43
2017-11-28T20:24:52.094Z,5.28
2017-11-28T20:27:20.042Z,5.68
2017-11-28T20:29:48.626Z,4.30
2017-11-28T20:32:16.818Z,4.80
2017-11-28T20:34:44.881Z,5.00
2017-11-28T20:37:12.635Z,5.70
2017-11-28T20:39:41.041Z,5.93
2017-11-28T20:42:09.109Z,4.93
2017-11-28T20:44:37.051Z,5.75
2017-11-28T20:47:05.841Z,4.70
2017-11-28T20:49:36.269Z,6.07
2017-11-28T20:52:04.402Z,4.93
2017-11-28T20:54:32.685Z,6.40
2017-11-28T20:57:00.788Z,5.50
2017-11-28T20:59:28.781Z,6.72
2017-11-28T21:01:56.519Z,5.60
2017-11-28T21:04:24.192Z,4.97
2017-11-28T21:06:52.252Z,5.25
2017-11-28T21:09:20.224Z,5.37
2017-11-28T21:11:48.804Z,5.25
2017-11-28T21:14:17.088Z,5.87
2017-11-28T21:16:45.151Z,4.65
2017-11-28T21:19:13.121Z,6.15
2017-11-28T21:21:40.942Z,6.18
2017-11-28T21:24:09.159Z,5.22
2017-11-28T21:26:36.714Z,4.72
2017-11-28T21:29:04.585Z,5.05
2017-11-28T21:31:32.356Z,4.90
2017-11-28T21:33:59.995Z,5.22
2017-11-28T21:36:27.775Z,5.43
2017-11-28T21:38:55.523Z,6.57
2017-11-28T21:41:23.302Z,7.35
2017-11-28T21:43:50.853Z,6.87
2017-11-28T21:46:18.717Z,6.20
2017-11-28T21:48:46.569Z,5.50
2017-11-28T21:51:14.259Z,6.43
2017-11-28T21:53:42.124Z,6.65
2017-11-28T21:56:09.663Z,6.03
2017-11-28T21:58:37.180Z,7.28
2017-11-28T22:01:04.777Z,7.30
2017-11-28T22:03:32.465Z,7.22
2017-11-28T22:05:59.985Z,6.40
2017-11-28T22:08:27.826Z,6.68
2017-11-28T22:10:55.383Z,6.90
2017-11-28T22:13:22.925Z,7.05
2017-11-28T22:15:50.489Z,6.30
2017-11-28T22:18:18.079Z,6.60
2017-11-28T22:20:45.605Z,7.35
2017-11-28T22:23:13.243Z,7.93
2017-11-28T22:25:40.802Z,6.32
2017-11-28T22:28:08.361Z,7.37
2017-11-28T22:30:36.108Z,7.22
2017-11-28T22:33:03.690Z,7.78
2017-11-28T22:35:31.245Z,7.87
2017-11-28T22:37:59.210Z,8.15
2017-11-28T22:40:26.872Z,8.02
2017-11-28T22:42:54.381Z,8.05
2017-11-28T22:45:22.220Z,7.97
2017-11-28T22:47:49.756Z,7.35
2017-11-28T22:50:17.372Z,8.70
2017-11-28T22:52:45.692Z,9.05
2017-11-28T22:55:13.559Z,8.65
2017-11-28T22:57:41.172Z,7.57
2017-11-28T23:00:09.189Z,8.48
2017-11-28T23:02:36.748Z,7.68
2017-11-28T23:05:04.451Z,9.18
2017-11-28T23:07:32.275Z,7.70
2017-11-28T23:09:59.837Z,7.95
2017-11-28T23:12:27.397Z,7.60
2017-11-28T23:14:55.488Z,8.40
2017-11-28T23:17:23.048Z,9.10
2017-11-28T23:19:50.569Z,8.35
2017-11-28T23:22:18.360Z,9.55
2017-11-28T23:24:45.892Z,10.25
2017-11-28T23:27:13.467Z,8.43
2017-11-28T23:29:41.436Z,8.38
2017-11-28T23:32:08.993Z,8.57
2017-11-28T23:34:36.553Z,9.57
2017-11-28T23:37:04.333Z,9.32
2017-11-28T23:39:31.863Z,9.27
2017-11-28T23:41:59.393Z,10.90
2017-11-28T23:44:27.086Z,9.60
2017-11-28T23:46:54.622Z,10.32
2017-11-28T23:49:22.144Z,10.88
2017-11-28T23:51:49.791Z,9.43
2017-11-28T23:54:17.378Z,9.10
2017-11-28T23:56:44.897Z,9.20
2017-11-28T23:59:12.476Z,11.10
